createdAt,value
2019-04-14T03:02:56.463Z,-0.90
2019-04-14T03:05:29.434Z,-0.90
2019-04-14T03:08:04.285Z,-0.90
2019-04-14T03:13:08.342Z,-0.90
2019-04-14T03:15:37.841Z,-0.90
2019-04-14T03:18:24.729Z,-0.90
2019-04-14T03:20:47.278Z,-0.90
2019-04-14T03:23:40.749Z,-0.90
2019-04-14T03:26:06.369Z,-0.90
2019-04-14T03:28:50.755Z,-0.90
2019-04-14T03:31:39.093Z,-0.90
2019-04-14T03:34:17.991Z,-0.90
2019-04-14T03:38:53.640Z,-0.90
2019-04-14T03:41:30.087Z,-0.90
2019-04-14T03:43:41.573Z,-0.90
2019-04-14T03:51:34.060Z,-0.90
2019-04-14T03:53:47.297Z,-0.80
2019-04-14T03:56:01.566Z,-0.90
2019-04-14T03:58:25.206Z,-0.90
2019-04-14T04:00:53.608Z,-0.80
2019-04-14T04:03:21.975Z,-0.80
2019-04-14T04:05:50.371Z,-0.80
2019-04-14T04:08:20.027Z,-0.80
2019-04-14T04:10:53.269Z,-0.80
2019-04-14T04:13:21.712Z,-0.80
2019-04-14T04:15:50.100Z,-0.70
2019-04-14T04:18:20.111Z,-0.80
2019-04-14T04:20:52.871Z,-0.80
2019-04-14T04:23:35.638Z,-0.80
2019-04-14T04:26:08.531Z,-0.80
2019-04-14T04:28:54.290Z,-0.80
2019-04-14T04:31:37.198Z,-0.80
2019-04-14T04:34:10.039Z,-0.80
2019-04-14T04:36:48.943Z,-0.70
2019-04-14T04:39:19.296Z,-0.70
2019-04-14T04:41:47.731Z,-0.80
2019-04-14T04:44:16.081Z,-0.80
2019-04-14T04:46:44.530Z,-0.80
2019-04-14T04:49:18.307Z,-0.70
2019-04-14T04:51:44.252Z,-0.70
2019-04-14T04:54:12.631Z,-0.80
2019-04-14T04:56:41.037Z,-0.80
2019-04-14T04:59:09.788Z,-0.70
2019-04-14T05:01:38.667Z,-0.70
2019-04-14T05:04:07.064Z,-0.80
2019-04-14T05:06:57.402Z,-0.70
2019-04-14T05:09:36.739Z,-0.80
2019-04-14T05:12:24.205Z,-0.80
2019-04-14T05:15:00.995Z,-0.70
2019-04-14T05:17:32.001Z,-0.70
2019-04-14T05:20:00.792Z,-0.70
2019-04-14T05:22:29.255Z,-0.70
2019-04-14T05:24:57.622Z,-0.60
2019-04-14T05:27:26.014Z,-0.60
2019-04-14T05:29:54.394Z,-0.50
2019-04-14T05:32:23.991Z,-0.50
2019-04-14T05:34:52.371Z,-0.50
2019-04-14T05:37:20.758Z,-0.40
2019-04-14T05:39:50.406Z,-0.40
2019-04-14T05:42:22.081Z,-0.50
2019-04-14T05:44:49.427Z,-0.40
2019-04-14T05:47:17.887Z,-0.40
2019-04-14T05:49:50.115Z,-0.50
2019-04-14T05:52:16.410Z,-0.40
2019-04-14T05:54:44.798Z,-0.40
2019-04-14T05:57:13.386Z,-0.30
2019-04-14T05:59:41.902Z,-0.30
2019-04-14T06:02:11.464Z,-0.30
2019-04-14T06:04:39.916Z,-0.30
2019-04-14T06:07:08.287Z,-0.30
2019-04-14T06:09:36.668Z,-0.30
2019-04-14T06:12:05.102Z,-0.30
2019-04-14T06:14:33.494Z,-0.20
2019-04-14T06:17:01.868Z,-0.20
2019-04-14T06:19:36.971Z,-0.20
2019-04-14T06:22:00.608Z,-0.10
2019-04-14T06:24:29.003Z,-0.10
2019-04-14T06:26:57.369Z,-0.10
2019-04-14T06:29:25.771Z,-0.10
2019-04-14T06:32:11.999Z,0.00
2019-04-14T06:34:42.033Z,-0.10
2019-04-14T06:37:16.079Z,0.00
2019-04-14T06:39:55.153Z,0.10
2019-04-14T06:42:23.534Z,0.10
2019-04-14T06:44:51.943Z,0.00
2019-04-14T06:47:20.378Z,0.10
2019-04-14T06:49:49.436Z,0.10
2019-04-14T06:52:17.942Z,0.20
2019-04-14T06:54:46.333Z,0.20
2019-04-14T06:57:14.691Z,0.20
2019-04-14T06:59:43.095Z,0.20
2019-04-14T07:02:11.462Z,0.30
2019-04-14T07:04:39.827Z,0.20
2019-04-14T07:07:08.220Z,0.20
2019-04-14T07:09:36.580Z,0.20
2019-04-14T07:12:05.052Z,0.30
2019-04-14T07:14:33.505Z,0.30
2019-04-14T07:17:01.893Z,0.30
2019-04-14T07:19:30.454Z,0.30
2019-04-14T07:21:58.830Z,0.50
2019-04-14T07:24:27.120Z,0.50
2019-04-14T07:26:55.512Z,0.60
2019-04-14T07:29:25.511Z,0.60
2019-04-14T07:32:11.889Z,0.80
2019-04-14T07:34:44.492Z,0.70
2019-04-14T07:37:23.428Z,0.70
2019-04-14T07:39:56.150Z,0.70
2019-04-14T07:42:34.594Z,0.90
2019-04-14T07:45:10.543Z,0.90
2019-04-14T07:47:49.506Z,1.00
2019-04-14T07:50:19.510Z,1.00
2019-04-14T07:52:52.458Z,0.90
2019-04-14T07:55:22.453Z,1.00
2019-04-14T07:57:57.885Z,1.00
2019-04-14T08:00:45.974Z,1.10
2019-04-14T08:03:24.740Z,1.00
2019-04-14T08:05:53.082Z,1.00
2019-04-14T08:08:21.475Z,1.10
2019-04-14T08:10:49.834Z,1.10
2019-04-14T08:13:18.225Z,1.10
2019-04-14T08:15:46.590Z,1.00
2019-04-14T08:18:14.979Z,1.00
2019-04-14T08:20:43.335Z,1.00
2019-04-14T08:23:11.734Z,1.10
2019-04-14T08:25:40.092Z,1.20
2019-04-14T08:28:08.512Z,1.20
2019-04-14T08:30:36.872Z,1.30
2019-04-14T08:33:05.393Z,1.40
2019-04-14T08:35:33.741Z,1.60
2019-04-14T08:38:02.133Z,1.90
2019-04-14T08:40:30.500Z,2.10
2019-04-14T08:43:16.607Z,2.20
2019-04-14T08:45:58.685Z,2.20
2019-04-14T08:48:45.015Z,2.20
2019-04-14T08:51:17.988Z,2.40
2019-04-14T08:53:50.682Z,2.70
2019-04-14T08:56:20.694Z,2.80
2019-04-14T08:59:02.797Z,2.80
2019-04-14T09:01:35.758Z,3.10
2019-04-14T09:04:17.906Z,3.30
2019-04-14T09:06:48.287Z,3.50
2019-04-14T09:09:21.110Z,3.60
2019-04-14T09:11:56.919Z,3.60
2019-04-14T09:14:25.282Z,3.20
2019-04-14T09:16:53.638Z,3.30
2019-04-14T09:19:22.545Z,3.30
2019-04-14T09:21:50.922Z,3.60
2019-04-14T09:24:19.307Z,3.90
2019-04-14T09:26:47.693Z,4.20
2019-04-14T09:29:16.055Z,4.40
2019-04-14T09:31:44.435Z,4.50
2019-04-14T09:34:12.798Z,4.60
2019-04-14T09:36:41.175Z,4.40
2019-04-14T09:39:09.538Z,4.40
2019-04-14T09:41:37.930Z,4.60
2019-04-14T09:44:06.290Z,4.40
2019-04-14T09:46:34.673Z,4.20
2019-04-14T09:49:03.043Z,4.20
2019-04-14T09:51:31.422Z,4.50
2019-04-14T09:53:59.839Z,4.20
2019-04-14T09:56:28.243Z,4.00
2019-04-14T09:58:56.606Z,4.20
2019-04-14T10:01:25.155Z,3.90
2019-04-14T10:03:53.519Z,4.10
2019-04-14T10:06:21.901Z,4.30
2019-04-14T10:08:50.265Z,4.20
2019-04-14T10:11:18.656Z,4.20
2019-04-14T10:13:47.010Z,4.40
2019-04-14T10:16:15.396Z,4.30
2019-04-14T10:18:43.748Z,4.50
2019-04-14T10:21:17.662Z,4.50
2019-04-14T10:23:42.131Z,4.50
2019-04-14T10:26:10.523Z,4.80
2019-04-14T10:28:38.880Z,4.60
2019-04-14T10:31:07.257Z,4.70
2019-04-14T10:33:35.611Z,4.90
2019-04-14T10:36:03.999Z,5.10
2019-04-14T10:38:32.351Z,5.10
2019-04-14T10:41:00.756Z,5.20
2019-04-14T10:43:29.124Z,5.40
2019-04-14T10:45:57.484Z,5.20
2019-04-14T10:48:25.867Z,5.30
2019-04-14T10:50:54.227Z,5.60
2019-04-14T10:53:22.617Z,5.70
2019-04-14T10:55:50.974Z,5.90
2019-04-14T10:58:19.354Z,6.50
2019-04-14T11:00:47.954Z,6.40
2019-04-14T11:03:16.334Z,6.30
2019-04-14T11:05:58.027Z,6.10
2019-04-14T11:08:26.414Z,5.90
2019-04-14T11:10:54.857Z,5.70
2019-04-14T11:13:23.274Z,6.10
2019-04-14T11:15:51.699Z,6.10
2019-04-14T11:18:20.111Z,5.90
2019-04-14T11:20:50.262Z,6.80
2019-04-14T11:23:18.648Z,7.10
2019-04-14T11:25:47.137Z,7.10
2019-04-14T11:28:15.605Z,7.20
2019-04-14T11:30:45.026Z,6.60
2019-04-14T11:33:17.784Z,6.50
2019-04-14T11:35:56.723Z,6.30
2019-04-14T11:38:32.705Z,6.20
2019-04-14T11:41:08.389Z,6.00
2019-04-14T11:43:36.772Z,6.10
2019-04-14T11:46:05.296Z,6.40
2019-04-14T11:48:33.691Z,6.30
2019-04-14T11:51:02.062Z,6.20
2019-04-14T11:53:30.459Z,6.20
2019-04-14T11:55:58.897Z,6.00
2019-04-14T11:58:29.170Z,5.90
2019-04-14T12:01:05.686Z,6.00
2019-04-14T12:03:35.695Z,6.20
2019-04-14T12:06:14.962Z,6.30
2019-04-14T12:08:45.697Z,6.20
2019-04-14T12:11:14.303Z,6.10
2019-04-14T12:13:42.807Z,6.40
2019-04-14T12:16:11.198Z,6.50
2019-04-14T12:18:39.554Z,6.80
2019-04-14T12:21:07.958Z,7.20
2019-04-14T12:23:36.322Z,7.40
2019-04-14T12:26:05.970Z,7.40
2019-04-14T12:28:34.478Z,7.50
2019-04-14T12:31:03.993Z,7.40
2019-04-14T12:33:32.619Z,7.40
2019-04-14T12:36:01.059Z,7.60
2019-04-14T12:38:29.574Z,7.60
2019-04-14T12:41:00.394Z,7.70
2019-04-14T12:43:35.491Z,7.70
2019-04-14T12:46:24.794Z,7.40
2019-04-14T12:48:54.853Z,7.50
2019-04-14T12:51:30.619Z,7.50
2019-04-14T12:53:59.131Z,7.70
2019-04-14T12:56:29.116Z,8.10
2019-04-14T12:59:01.852Z,8.00
2019-04-14T13:01:43.762Z,8.00
2019-04-14T13:04:12.412Z,7.80
2019-04-14T13:06:40.795Z,7.70
2019-04-14T13:09:09.183Z,7.70
2019-04-14T13:11:37.891Z,7.70
2019-04-14T13:14:07.328Z,7.30
2019-04-14T13:16:35.774Z,7.40
2019-04-14T13:19:04.465Z,7.10
2019-04-14T13:21:32.900Z,7.40
2019-04-14T13:24:01.290Z,7.80
2019-04-14T13:26:29.735Z,7.70
2019-04-14T13:28:58.124Z,7.50
2019-04-14T13:31:26.584Z,7.60
2019-04-14T13:33:55.018Z,7.60
2019-04-14T13:36:23.548Z,8.00
2019-04-14T13:38:51.879Z,8.10
2019-04-14T13:41:20.307Z,8.00
2019-04-14T13:43:48.675Z,8.20
2019-04-14T13:46:17.323Z,7.70
2019-04-14T13:48:47.732Z,7.80
2019-04-14T13:51:16.083Z,7.90
2019-04-14T13:53:44.578Z,7.80
2019-04-14T13:56:13.048Z,7.80
2019-04-14T13:58:41.443Z,8.20
2019-04-14T14:01:09.806Z,8.40
2019-04-14T14:03:38.286Z,8.50
2019-04-14T14:06:06.710Z,8.60
2019-04-14T14:08:35.133Z,8.20
2019-04-14T14:11:19.814Z,8.40
2019-04-14T14:14:01.570Z,8.40
2019-04-14T14:16:47.780Z,8.30
2019-04-14T14:19:17.895Z,8.60
2019-04-14T14:21:47.870Z,8.40
2019-04-14T14:24:29.686Z,8.70
2019-04-14T14:26:59.789Z,9.00
2019-04-14T14:29:28.183Z,8.90
2019-04-14T14:31:57.330Z,9.60
2019-04-14T14:34:25.723Z,9.50
2019-04-14T14:36:54.170Z,9.40
2019-04-14T14:39:22.641Z,9.10
2019-04-14T14:41:51.006Z,9.20
2019-04-14T14:44:20.033Z,9.20
2019-04-14T14:46:58.649Z,9.30
2019-04-14T14:49:28.684Z,9.00
2019-04-14T14:51:58.797Z,9.30
2019-04-14T14:54:27.394Z,9.40
2019-04-14T14:56:56.728Z,9.20
2019-04-14T14:59:25.094Z,8.90
2019-04-14T15:01:53.457Z,9.10
2019-04-14T15:04:21.882Z,9.60
2019-04-14T15:06:50.466Z,9.70
2019-04-14T15:09:18.819Z,9.40
2019-04-14T15:11:47.246Z,10.20
2019-04-14T15:14:15.697Z,10.30
2019-04-14T15:16:44.089Z,10.50
2019-04-14T15:19:12.483Z,9.60
2019-04-14T15:21:40.839Z,9.60
2019-04-14T15:24:09.226Z,9.70
2019-04-14T15:26:37.585Z,10.40
2019-04-14T15:29:06.012Z,12.70
2019-04-14T15:31:35.475Z,13.50
2019-04-14T15:34:03.883Z,11.60
2019-04-14T15:36:32.374Z,10.20
2019-04-14T15:39:00.738Z,9.80
2019-04-14T15:41:29.208Z,11.50
2019-04-14T15:43:57.555Z,13.50
2019-04-14T15:46:25.997Z,12.90
2019-04-14T15:48:54.306Z,15.70
2019-04-14T15:51:22.689Z,17.20
2019-04-14T15:53:51.065Z,18.90
2019-04-14T15:56:21.154Z,19.30
2019-04-14T15:59:07.292Z,21.20
2019-04-14T16:01:40.047Z,21.90
2019-04-14T16:04:15.855Z,21.90
2019-04-14T16:06:45.980Z,19.80
2019-04-14T16:09:24.852Z,16.10
2019-04-14T16:11:54.854Z,13.50
2019-04-14T16:14:37.013Z,12.30
2019-04-14T16:17:09.877Z,16.70
2019-04-14T16:19:41.567Z,19.80
2019-04-14T16:22:09.962Z,20.40
2019-04-14T16:24:38.399Z,21.00
2019-04-14T16:27:11.038Z,21.00
2019-04-14T16:29:40.991Z,17.80
2019-04-14T16:32:11.130Z,17.60
2019-04-14T16:34:41.135Z,15.40
2019-04-14T16:37:09.559Z,16.10
2019-04-14T16:39:37.984Z,13.70
2019-04-14T16:42:06.377Z,12.00
2019-04-14T16:44:34.754Z,11.90
2019-04-14T16:47:03.316Z,12.70
2019-04-14T16:49:31.679Z,12.10
2019-04-14T16:52:01.717Z,11.40
2019-04-14T16:54:31.716Z,10.60
2019-04-14T16:57:07.270Z,12.10
2019-04-14T16:59:35.645Z,11.00
2019-04-14T17:02:10.679Z,10.80
2019-04-14T17:04:34.294Z,12.20
2019-04-14T17:07:02.627Z,11.80
2019-04-14T17:09:31.060Z,12.80
2019-04-14T17:11:59.965Z,14.10
2019-04-14T17:14:36.299Z,14.50
2019-04-14T17:17:24.417Z,14.50
2019-04-14T17:20:10.151Z,14.40
2019-04-14T17:22:49.017Z,13.20
2019-04-14T17:25:24.641Z,12.90
2019-04-14T17:28:12.333Z,12.30
2019-04-14T17:30:54.389Z,11.10
2019-04-14T17:33:27.146Z,10.10
2019-04-14T17:36:00.062Z,9.40
2019-04-14T17:38:41.855Z,9.00
2019-04-14T17:41:20.987Z,8.60
2019-04-14T17:43:51.025Z,8.30
2019-04-14T17:46:29.731Z,7.90
2019-04-14T17:49:14.898Z,7.70
2019-04-14T17:51:53.647Z,7.50
2019-04-14T17:54:29.997Z,7.30
2019-04-14T17:57:00.001Z,7.00
2019-04-14T17:59:30.071Z,6.80
2019-04-14T18:02:00.025Z,6.60
2019-04-14T18:04:32.495Z,6.40
2019-04-14T18:07:11.333Z,6.20
2019-04-14T18:09:41.382Z,5.90
2019-04-14T18:12:20.477Z,5.70
2019-04-14T18:14:56.582Z,5.50
2019-04-14T18:17:26.681Z,5.40
2019-04-14T18:20:05.389Z,5.20
2019-04-14T18:22:33.839Z,5.00
2019-04-14T18:25:02.296Z,4.90
2019-04-14T18:27:32.332Z,4.90
2019-04-14T18:30:02.325Z,4.70
2019-04-14T18:32:38.198Z,4.50
2019-04-14T18:35:14.307Z,4.40
2019-04-14T18:37:53.106Z,4.30
2019-04-14T18:40:26.206Z,4.10
2019-04-14T18:43:02.002Z,4.00
2019-04-14T18:45:42.845Z,3.90
2019-04-14T18:48:28.472Z,3.70
2019-04-14T18:51:16.582Z,3.60
2019-04-14T18:53:58.304Z,3.50
2019-04-14T18:56:44.602Z,3.40
2019-04-14T18:59:17.104Z,3.30
2019-04-14T19:01:47.175Z,3.20
2019-04-14T19:04:15.983Z,3.10
2019-04-14T19:06:44.520Z,3.10
2019-04-14T19:09:12.903Z,3.00
2019-04-14T19:11:42.938Z,3.00
2019-04-14T19:14:12.960Z,2.90
2019-04-14T19:16:55.023Z,2.80
2019-04-14T19:19:24.146Z,2.80
2019-04-14T19:21:52.526Z,2.70
2019-04-14T19:24:20.887Z,2.60
2019-04-14T19:26:49.278Z,2.50
2019-04-14T19:29:17.645Z,2.40
2019-04-14T19:31:46.005Z,2.30
2019-04-14T19:34:14.459Z,2.20
2019-04-14T19:36:42.929Z,2.30
2019-04-14T19:39:11.366Z,2.40
2019-04-14T19:41:39.761Z,2.40
2019-04-14T19:44:08.158Z,2.20
2019-04-14T19:46:36.552Z,2.10
2019-04-14T19:49:04.918Z,2.00
2019-04-14T19:51:33.300Z,2.00
2019-04-14T19:54:01.658Z,1.90
2019-04-14T19:56:30.023Z,1.70
2019-04-14T19:58:58.439Z,1.60
2019-04-14T20:01:26.773Z,1.50
2019-04-14T20:03:55.165Z,1.40
2019-04-14T20:06:23.551Z,1.30
2019-04-14T20:08:51.938Z,1.20
2019-04-14T20:11:20.303Z,1.20
2019-04-14T20:13:48.675Z,1.20
2019-04-14T20:16:34.925Z,1.20
2019-04-14T20:19:10.750Z,1.20
2019-04-14T20:21:39.602Z,1.20
2019-04-14T20:24:25.667Z,1.30
2019-04-14T20:27:07.878Z,1.30
2019-04-14T20:29:37.955Z,1.20
2019-04-14T20:32:07.955Z,1.10
2019-04-14T20:34:36.347Z,1.10
2019-04-14T20:37:04.703Z,1.20
2019-04-14T20:39:33.265Z,1.20
2019-04-14T20:42:01.623Z,1.10
2019-04-14T20:44:30.019Z,1.00
2019-04-14T20:46:58.383Z,1.00
2019-04-14T20:49:26.798Z,1.00
2019-04-14T20:51:55.154Z,1.00
2019-04-14T20:54:23.519Z,0.90
2019-04-14T20:56:51.923Z,0.80
2019-04-14T20:59:20.268Z,1.00
2019-04-14T21:01:50.287Z,1.10
2019-04-14T21:04:22.954Z,1.10
2019-04-14T21:07:08.992Z,1.10
2019-04-14T21:09:47.974Z,1.00
2019-04-14T21:12:23.922Z,1.10
2019-04-14T21:14:56.887Z,1.10
2019-04-14T21:17:26.911Z,1.00
2019-04-14T21:19:59.870Z,1.00
2019-04-14T21:22:46.158Z,1.10
2019-04-14T21:25:16.159Z,1.10
2019-04-14T21:27:46.175Z,1.00
2019-04-14T21:30:25.114Z,1.00
2019-04-14T21:33:04.082Z,0.90
2019-04-14T21:35:34.083Z,0.90
2019-04-14T21:38:04.102Z,0.90
2019-04-14T21:40:37.115Z,0.90
2019-04-14T21:43:05.498Z,0.90
2019-04-14T21:45:33.856Z,0.80
2019-04-14T21:48:02.233Z,0.80
2019-04-14T21:50:30.587Z,0.80
2019-04-14T21:52:59.039Z,0.70
2019-04-14T21:55:27.383Z,0.70
2019-04-14T21:57:57.330Z,0.60
2019-04-14T22:00:57.417Z,0.70
2019-04-14T22:03:39.335Z,0.60
2019-04-14T22:06:18.075Z,0.60
2019-04-14T22:08:50.766Z,0.50
2019-04-14T22:11:23.486Z,0.50
2019-04-14T22:13:51.799Z,0.40
2019-04-14T22:16:20.154Z,0.40
2019-04-14T22:18:48.907Z,0.40
2019-04-14T22:21:17.262Z,0.40
2019-04-14T22:23:45.679Z,0.40
2019-04-14T22:26:25.508Z,0.30
2019-04-14T22:28:44.662Z,0.20
2019-04-14T22:31:13.098Z,0.10
2019-04-14T22:33:41.552Z,0.00
2019-04-14T22:36:10.195Z,0.00
2019-04-14T22:38:42.190Z,0.00
2019-04-14T22:41:10.550Z,-0.10
2019-04-14T22:43:39.086Z,-0.20
2019-04-14T22:46:07.447Z,-0.30
2019-04-14T22:48:35.924Z,-0.30
2019-04-14T22:51:04.262Z,-0.30
2019-04-14T22:53:32.649Z,-0.40
2019-04-14T22:56:01.095Z,-0.40
2019-04-14T22:58:29.568Z,-0.40
2019-04-14T23:01:02.518Z,-0.50
2019-04-14T23:03:50.526Z,-0.50
2019-04-14T23:06:23.261Z,-0.50
2019-04-14T23:08:53.219Z,-0.60
2019-04-14T23:11:35.002Z,-0.60
2019-04-14T23:14:16.806Z,-0.60
2019-04-14T23:17:02.791Z,-0.60
2019-04-14T23:19:35.837Z,-0.70
2019-04-14T23:22:21.981Z,-0.80
2019-04-14T23:24:51.127Z,-0.80
2019-04-14T23:27:19.416Z,-0.90
2019-04-14T23:29:47.798Z,-0.90
2019-04-14T23:32:16.159Z,-1.00
2019-04-14T23:34:44.542Z,-1.20
2019-04-14T23:37:12.890Z,-1.20
2019-04-14T23:39:41.198Z,-1.00
2019-04-14T23:42:09.554Z,-0.90
2019-04-14T23:44:37.939Z,-0.90
2019-04-14T23:47:06.298Z,-0.90
2019-04-14T23:49:34.682Z,-0.90
2019-04-14T23:52:03.043Z,-0.90
2019-04-14T23:54:31.426Z,-1.00
2019-04-14T23:57:06.156Z,-1.10
2019-04-14T23:59:29.743Z,-1.20
